Time;durP1;ratioP1;P1;durP2;ratioP2;P2;SDS_P1;SDS_P2;PMS_P1;PMS_P2;Temp;Humidity;BMP_temperature;BMP_pressure;BME280_temperature;BME280_humidity;BME280_pressure;Samples;Min_cycle;Max_cycle;Signal;HPM_P1;HPM_P2
2021/11/22 00:02:21;;;;;;;22.08;15.75;;;5.10;97.00;;;;;;5021841;28;20295;-80
2021/11/22 00:04:48;;;;;;;22.85;16.30;;;5.20;97.50;;;;;;5026346;28;20221;-80
2021/11/22 00:07:16;;;;;;;23.85;16.00;;;5.20;98.00;;;;;;5030012;28;20286;-81
2021/11/22 00:09:43;;;;;;;24.58;15.68;;;5.30;98.40;;;;;;5042975;28;20203;-78
2021/11/22 00:12:11;;;;;;;20.98;15.60;;;5.30;98.80;;;;;;5042046;28;20261;-80
2021/11/22 00:14:39;;;;;;;24.33;17.27;;;5.30;98.80;;;;;;5035290;28;20207;-80
2021/11/22 00:17:06;;;;;;;22.60;16.52;;;5.20;99.60;;;;;;5029573;28;20231;-79
2021/11/22 00:19:34;;;;;;;20.77;16.50;;;5.20;99.90;;;;;;5028995;28;20204;-79
2021/11/22 00:22:02;;;;;;;20.48;16.27;;;5.20;99.90;;;;;;5028174;28;20266;-79
2021/11/22 00:24:29;;;;;;;24.05;16.45;;;5.10;99.90;;;;;;5023683;28;20222;-80
2021/11/22 00:26:56;;;;;;;22.92;15.70;;;5.10;99.90;;;;;;5044830;28;20286;-80
2021/11/22 00:29:22;;;;;;;22.50;15.63;;;5.10;99.90;;;;;;5031108;28;20211;-78
2021/11/22 00:31:52;;;;;;;26.38;18.15;;;5.10;99.90;;;;;;5021635;28;20217;-78
2021/11/22 00:34:19;;;;;;;25.20;16.85;;;4.90;99.90;;;;;;5029588;28;20286;-78
2021/11/22 00:36:47;;;;;;;28.40;17.75;;;4.90;99.90;;;;;;5019891;28;20232;-78
2021/11/22 00:39:14;;;;;;;24.52;16.25;;;4.80;99.90;;;;;;5015225;28;20425;-78
2021/11/22 00:41:41;;;;;;;24.77;16.35;;;4.90;99.90;;;;;;5026335;28;20223;-78
2021/11/22 00:44:08;;;;;;;25.48;17.52;;;4.90;99.90;;;;;;5027519;28;20226;-78
2021/11/22 00:46:35;;;;;;;25.17;17.08;;;4.80;99.90;;;;;;5029304;28;20593;-78
2021/11/22 00:49:03;;;;;;;27.70;17.40;;;4.90;99.90;;;;;;5036249;28;20209;-79
2021/11/22 00:51:31;;;;;;;26.65;17.20;;;4.90;99.90;;;;;;5039893;28;20206;-78
2021/11/22 00:53:57;;;;;;;28.48;17.83;;;4.90;99.90;;;;;;5041021;28;20203;-79
2021/11/22 00:56:25;;;;;;;28.45;17.75;;;4.90;99.90;;;;;;5039351;28;20744;-80
2021/11/22 00:58:52;;;;;;;27.83;17.58;;;4.90;99.90;;;;;;5017313;28;20325;-78
2021/11/22 01:01:18;;;;;;;31.42;18.00;;;4.90;99.90;;;;;;5019349;28;20227;-78
2021/11/22 01:03:45;;;;;;;28.08;17.13;;;4.80;99.90;;;;;;5019056;28;20279;-79
2021/11/22 01:06:14;;;;;;;26.10;16.70;;;4.80;99.90;;;;;;5017124;28;20232;-77
2021/11/22 01:08:41;;;;;;;29.67;17.20;;;4.90;99.90;;;;;;5025556;28;20241;-78
2021/11/22 01:11:07;;;;;;;28.17;17.15;;;4.90;99.90;;;;;;5034036;28;20306;-78
2021/11/22 01:13:34;;;;;;;28.85;16.13;;;5.00;99.90;;;;;;5014099;28;20562;-78
2021/11/22 01:16:01;;;;;;;26.52;16.23;;;5.00;99.90;;;;;;5015888;28;20598;-79
2021/11/22 01:18:28;;;;;;;29.95;16.67;;;4.90;99.90;;;;;;5018170;28;20213;-79
2021/11/22 01:20:55;;;;;;;29.25;16.73;;;4.90;99.90;;;;;;5037702;28;20234;-79
2021/11/22 01:23:23;;;;;;;25.92;17.02;;;4.80;99.90;;;;;;5030799;28;20215;-79
2021/11/22 01:25:50;;;;;;;33.38;17.63;;;4.80;99.90;;;;;;5019602;28;20318;-79
2021/11/22 01:28:17;;;;;;;26.23;15.18;;;4.80;99.90;;;;;;5038823;28;20241;-76
2021/11/22 01:30:44;;;;;;;28.60;16.83;;;4.80;99.90;;;;;;5032652;28;20215;-78
2021/11/22 01:33:13;;;;;;;34.10;17.13;;;4.90;99.90;;;;;;5032313;28;20545;-78
2021/11/22 01:35:40;;;;;;;28.08;15.00;;;4.80;99.90;;;;;;4993776;28;20242;-77
2021/11/22 01:38:08;;;;;;;30.45;16.52;;;4.80;99.90;;;;;;5015299;28;20245;-79
2021/11/22 01:40:36;;;;;;;26.65;15.23;;;4.80;99.90;;;;;;5037287;28;20230;-79
2021/11/22 01:43:03;;;;;;;25.10;15.40;;;4.80;99.90;;;;;;5040248;28;20211;-79
2021/11/22 01:45:33;;;;;;;27.52;15.10;;;4.80;99.90;;;;;;5027828;28;20461;-79
2021/11/22 01:48:01;;;;;;;24.17;14.55;;;4.90;99.90;;;;;;5014662;28;20652;-78
2021/11/22 01:50:29;;;;;;;26.63;14.02;;;4.90;99.90;;;;;;5033673;28;20199;-78
2021/11/22 01:52:57;;;;;;;28.60;14.52;;;4.90;99.90;;;;;;5037227;28;20565;-78
2021/11/22 01:55:26;;;;;;;28.95;14.52;;;4.80;99.90;;;;;;5040044;28;20249;-78
2021/11/22 01:57:55;;;;;;;25.98;15.38;;;4.90;99.90;;;;;;5038582;28;20213;-78
2021/11/22 02:00:25;;;;;;;28.70;14.45;;;4.80;99.90;;;;;;5022497;28;20251;-78
2021/11/22 02:02:53;;;;;;;28.98;14.23;;;4.90;99.90;;;;;;5015048;28;20191;-77
2021/11/22 02:05:20;;;;;;;28.08;15.93;;;4.90;99.90;;;;;;5016616;28;20250;-79
2021/11/22 02:07:47;;;;;;;26.88;15.02;;;4.90;99.90;;;;;;5029769;28;20207;-80
2021/11/22 02:10:14;;;;;;;26.45;14.82;;;4.90;99.90;;;;;;5035988;28;20196;-79
2021/11/22 02:12:41;;;;;;;22.92;13.80;;;4.90;99.90;;;;;;5020257;28;20316;-79
2021/11/22 02:15:12;;;;;;;23.60;13.27;;;5.00;99.90;;;;;;5040932;28;20286;-78
2021/11/22 02:17:41;;;;;;;24.98;13.68;;;4.90;99.90;;;;;;5041117;28;20210;-78
2021/11/22 02:20:13;;;;;;;26.23;14.43;;;4.90;99.90;;;;;;5037689;28;20204;-78
2021/11/22 02:22:41;;;;;;;25.55;13.77;;;4.90;99.90;;;;;;5058866;28;20620;-77
2021/11/22 02:25:10;;;;;;;24.20;12.65;;;4.90;99.90;;;;;;5045155;28;20220;-77
2021/11/22 02:27:39;;;;;;;25.25;14.23;;;4.90;99.90;;;;;;5036385;28;20215;-78
2021/11/22 02:30:07;;;;;;;21.15;13.32;;;4.90;99.90;;;;;;5042536;28;20217;-79
2021/11/22 02:32:37;;;;;;;32.28;14.95;;;4.90;99.90;;;;;;5025202;28;20572;-78
2021/11/22 02:35:05;;;;;;;27.05;14.50;;;4.90;99.90;;;;;;5020068;28;20203;-78
2021/11/22 02:37:34;;;;;;;28.20;14.35;;;4.90;99.90;;;;;;5033335;28;20235;-77
2021/11/22 02:40:01;;;;;;;27.55;13.63;;;4.90;99.90;;;;;;5019024;28;20287;-78
2021/11/22 02:42:30;;;;;;;24.27;13.20;;;4.90;99.90;;;;;;5035862;28;20209;-78
2021/11/22 02:44:58;;;;;;;26.15;14.02;;;4.90;99.90;;;;;;5052188;28;20215;-78
2021/11/22 02:47:26;;;;;;;28.05;14.25;;;5.00;99.90;;;;;;5035389;28;20231;-78
2021/11/22 02:49:53;;;;;;;25.73;14.10;;;5.00;99.90;;;;;;5036479;28;20207;-78
2021/11/22 02:52:20;;;;;;;21.50;12.73;;;5.00;99.90;;;;;;5035658;28;20200;-78
2021/11/22 02:54:48;;;;;;;24.85;13.88;;;5.10;99.90;;;;;;5015729;28;20208;-77
2021/11/22 02:57:16;;;;;;;23.42;12.35;;;5.00;99.90;;;;;;5015536;28;20584;-78
2021/11/22 02:59:44;;;;;;;22.70;12.75;;;5.00;99.90;;;;;;5015076;28;20208;-77
2021/11/22 03:02:13;;;;;;;25.90;13.68;;;5.10;99.90;;;;;;5015226;28;20235;-77
2021/11/22 03:04:42;;;;;;;28.80;14.68;;;5.00;99.90;;;;;;5030715;28;20627;-78
2021/11/22 03:07:10;;;;;;;21.55;13.10;;;5.00;99.90;;;;;;5028926;28;20227;-78
2021/11/22 03:09:37;;;;;;;25.35;13.60;;;5.00;99.90;;;;;;5020608;28;20203;-78
2021/11/22 03:12:08;;;;;;;24.48;12.90;;;5.00;99.90;;;;;;5038197;28;20195;-78
2021/11/22 03:14:36;;;;;;;26.98;13.63;;;5.10;99.90;;;;;;5033652;28;20674;-77
2021/11/22 03:17:04;;;;;;;21.80;11.77;;;5.10;99.90;;;;;;5017259;28;20227;-78
2021/11/22 03:19:31;;;;;;;25.33;13.05;;;5.10;99.90;;;;;;5020982;28;20208;-78
2021/11/22 03:21:59;;;;;;;22.90;12.35;;;5.20;99.90;;;;;;5027602;28;20215;-78
2021/11/22 03:24:26;;;;;;;23.67;12.77;;;5.20;99.90;;;;;;5040363;28;20211;-78
2021/11/22 03:26:53;;;;;;;21.33;12.45;;;5.10;99.90;;;;;;5021073;28;20234;-78
2021/11/22 03:29:21;;;;;;;20.20;11.70;;;5.10;99.90;;;;;;5027441;28;20206;-79
2021/11/22 03:31:48;;;;;;;21.70;12.75;;;5.10;99.90;;;;;;5037910;28;20203;-77
2021/11/22 03:34:15;;;;;;;18.55;10.68;;;5.10;99.90;;;;;;5032487;28;20207;-78
2021/11/22 03:36:42;;;;;;;20.77;12.10;;;5.20;99.90;;;;;;5035010;28;20227;-77
2021/11/22 03:39:15;;;;;;;19.48;12.15;;;5.10;99.90;;;;;;5036901;28;20586;-78
2021/11/22 03:41:42;;;;;;;21.55;12.52;;;5.10;99.90;;;;;;5018256;28;20223;-77
2021/11/22 03:44:13;;;;;;;19.60;11.38;;;5.10;99.90;;;;;;5017439;28;20213;-77
2021/11/22 03:46:44;;;;;;;20.02;11.35;;;5.20;99.90;;;;;;5025093;28;20224;-77
2021/11/22 03:49:12;;;;;;;14.90;9.90;;;5.20;99.90;;;;;;5012999;28;20211;-77
2021/11/22 03:51:39;;;;;;;18.02;10.15;;;5.20;99.90;;;;;;5023745;28;20204;-77
2021/11/22 03:54:06;;;;;;;19.98;11.10;;;5.20;99.90;;;;;;5029733;28;20692;-77
2021/11/22 03:56:34;;;;;;;21.33;10.68;;;5.20;99.90;;;;;;5101391;23;20238;-79
2021/11/22 03:59:02;;;;;;;19.00;10.45;;;5.20;99.90;;;;;;5037227;28;20218;-79
2021/11/22 04:01:29;;;;;;;22.63;11.63;;;5.20;99.90;;;;;;5037591;28;20230;-79
2021/11/22 04:04:01;;;;;;;21.20;11.20;;;5.20;99.90;;;;;;5038018;28;20550;-79
2021/11/22 04:06:28;;;;;;;19.15;11.18;;;5.20;99.90;;;;;;5037178;28;20322;-79
2021/11/22 04:08:56;;;;;;;22.85;12.00;;;5.20;99.90;;;;;;5037727;28;20239;-79
2021/11/22 04:11:23;;;;;;;23.10;11.75;;;5.20;99.90;;;;;;5036357;28;20211;-80
2021/11/22 04:13:52;;;;;;;25.33;12.68;;;5.30;99.90;;;;;;5036792;28;20277;-79
2021/11/22 04:16:20;;;;;;;25.77;13.40;;;5.20;99.90;;;;;;5036922;28;20237;-79
2021/11/22 04:18:49;;;;;;;24.33;13.05;;;5.20;99.90;;;;;;5042499;28;20231;-79
2021/11/22 04:21:20;;;;;;;31.30;14.02;;;5.20;99.90;;;;;;5053246;28;20219;-78
2021/11/22 04:23:51;;;;;;;23.85;13.07;;;5.20;99.90;;;;;;5052958;28;20213;-79
2021/11/22 04:26:19;;;;;;;28.55;15.00;;;5.20;99.90;;;;;;5046150;28;20231;-79
2021/11/22 04:28:49;;;;;;;32.80;15.00;;;5.10;99.90;;;;;;5046398;28;20208;-80
2021/11/22 04:31:17;;;;;;;28.60;14.65;;;5.20;99.90;;;;;;5046639;28;20599;-80
2021/11/22 04:33:44;;;;;;;30.73;15.05;;;5.10;99.90;;;;;;5048230;28;20226;-80
2021/11/22 04:36:12;;;;;;;33.95;14.95;;;5.10;99.90;;;;;;5046956;28;20243;-80
2021/11/22 04:38:43;;;;;;;32.38;15.18;;;5.20;99.90;;;;;;5048038;28;20247;-79
2021/11/22 04:41:11;;;;;;;25.23;13.55;;;5.20;99.90;;;;;;5045266;28;20674;-78
2021/11/22 04:43:38;;;;;;;31.40;15.65;;;5.20;99.90;;;;;;5041065;28;20273;-79
2021/11/22 04:46:11;;;;;;;23.05;13.88;;;5.20;99.90;;;;;;5049906;28;20227;-79
2021/11/22 04:48:39;;;;;;;32.55;14.68;;;5.20;99.90;;;;;;5049568;28;20564;-79
2021/11/22 04:51:06;;;;;;;26.98;14.70;;;5.20;99.90;;;;;;5050431;28;20230;-80
2021/11/22 04:53:33;;;;;;;25.40;14.05;;;5.30;99.90;;;;;;5048806;28;20214;-79
2021/11/22 04:56:04;;;;;;;24.70;13.23;;;5.30;99.90;;;;;;5031913;28;20231;-79
2021/11/22 04:58:32;;;;;;;25.65;14.02;;;5.40;99.90;;;;;;5030394;28;20196;-79
2021/11/22 05:00:59;;;;;;;25.90;13.93;;;5.30;99.90;;;;;;5046924;28;20207;-79
2021/11/22 05:03:27;;;;;;;24.33;14.10;;;5.40;99.90;;;;;;5047985;28;20214;-79
2021/11/22 05:05:54;;;;;;;27.15;13.60;;;5.30;99.90;;;;;;5047379;28;20230;-78
2021/11/22 05:08:22;;;;;;;26.92;14.40;;;5.30;99.90;;;;;;5047714;28;20234;-80
2021/11/22 05:10:49;;;;;;;25.65;14.90;;;5.30;99.90;;;;;;5041971;28;20211;-79
2021/11/22 05:13:20;;;;;;;28.50;13.77;;;5.30;99.90;;;;;;5039624;28;20231;-80
2021/11/22 05:15:51;;;;;;;29.58;14.65;;;5.30;99.90;;;;;;5040010;28;20234;-79
2021/11/22 05:18:18;;;;;;;26.65;14.93;;;5.40;99.90;;;;;;5043519;28;20270;-79
2021/11/22 05:20:46;;;;;;;25.02;13.40;;;5.30;99.90;;;;;;5047730;28;20670;-78
2021/11/22 05:23:14;;;;;;;25.48;14.13;;;5.40;99.90;;;;;;5047750;28;20257;-78
2021/11/22 05:25:42;;;;;;;27.50;14.05;;;5.40;99.90;;;;;;5048919;28;20241;-79
2021/11/22 05:28:10;;;;;;;25.55;13.20;;;5.30;99.90;;;;;;5046691;28;20210;-79
2021/11/22 05:30:39;;;;;;;25.25;14.60;;;5.40;99.90;;;;;;5043899;28;20582;-79
2021/11/22 05:33:07;;;;;;;26.40;13.27;;;5.40;99.90;;;;;;5023862;28;20603;-79
2021/11/22 05:38:14;;;;;;;21.02;11.60;;;5.50;99.90;;;;;;5246160;23;20721;-79
2021/11/22 05:40:42;;;;;;;16.67;10.50;;;5.50;99.90;;;;;;4980543;28;20237;-78
2021/11/22 05:43:09;;;;;;;19.42;11.50;;;5.50;99.90;;;;;;4993290;28;20287;-79
2021/11/22 05:45:38;;;;;;;18.55;11.05;;;5.50;99.90;;;;;;4980615;28;20272;-78
2021/11/22 05:48:07;;;;;;;19.10;10.40;;;5.50;99.90;;;;;;4978949;28;20209;-79
2021/11/22 05:51:18;;;;;;;20.15;11.95;;;5.50;99.90;;;;;;4989931;28;20204;-79
2021/11/22 05:53:47;;;;;;;14.90;9.57;;;5.50;99.90;;;;;;4918962;29;20328;-78
2021/11/22 05:56:15;;;;;;;17.25;10.13;;;5.60;99.90;;;;;;4905944;29;20208;-78
2021/11/22 05:58:42;;;;;;;15.73;10.23;;;5.70;99.90;;;;;;4921481;29;20212;-79
2021/11/22 06:01:11;;;;;;;16.83;10.70;;;5.70;99.90;;;;;;4923601;29;20219;-78
2021/11/22 06:03:38;;;;;;;15.40;10.68;;;5.70;99.90;;;;;;4920538;29;20196;-78
2021/11/22 06:06:05;;;;;;;22.77;11.77;;;5.60;99.90;;;;;;4905652;29;20212;-78
2021/11/22 06:08:32;;;;;;;17.85;10.68;;;5.50;99.90;;;;;;4918876;29;20204;-79
2021/11/22 06:10:59;;;;;;;14.40;9.70;;;5.50;99.90;;;;;;4918466;29;20205;-78
2021/11/22 06:13:25;;;;;;;18.63;11.75;;;5.50;99.90;;;;;;4904418;29;20370;-79
2021/11/22 06:15:52;;;;;;;16.58;10.70;;;5.50;99.90;;;;;;4918368;29;20291;-79
2021/11/22 06:18:25;;;;;;;23.35;11.88;;;5.50;99.90;;;;;;4922915;29;20205;-82
2021/11/22 06:20:51;;;;;;;15.85;10.70;;;5.50;99.90;;;;;;4914500;29;20206;-77
2021/11/22 06:23:18;;;;;;;16.02;10.15;;;5.50;99.90;;;;;;4898659;29;20224;-78
2021/11/22 06:25:45;;;;;;;20.23;11.30;;;5.50;99.90;;;;;;4896453;29;20228;-79
2021/11/22 06:28:12;;;;;;;18.92;12.07;;;5.60;99.90;;;;;;4896751;29;20200;-78
2021/11/22 06:30:40;;;;;;;17.45;12.45;;;5.50;99.90;;;;;;4937131;29;20205;-77
2021/11/22 06:33:07;;;;;;;21.63;13.60;;;5.60;99.90;;;;;;4981528;28;20205;-80
2021/11/22 06:35:36;;;;;;;19.63;12.32;;;5.60;99.90;;;;;;4978531;28;20307;-79
2021/11/22 06:38:03;;;;;;;23.30;13.05;;;5.60;99.90;;;;;;4962010;29;20260;-79
2021/11/22 06:40:30;;;;;;;23.35;13.68;;;5.60;99.90;;;;;;4977163;28;20280;-78
2021/11/22 06:42:57;;;;;;;24.55;14.40;;;5.60;99.90;;;;;;4976158;28;20261;-78
2021/11/22 06:45:25;;;;;;;28.65;16.17;;;5.60;99.90;;;;;;4963210;29;20214;-78
2021/11/22 06:47:52;;;;;;;26.63;15.27;;;5.60;99.90;;;;;;4963666;28;20205;-80
2021/11/22 06:50:19;;;;;;;32.75;16.65;;;5.70;99.90;;;;;;4970676;28;20217;-77
2021/11/22 06:52:47;;;;;;;33.38;16.45;;;5.70;99.90;;;;;;4983731;28;20288;-79
2021/11/22 06:55:15;;;;;;;28.08;15.73;;;5.70;99.90;;;;;;4985975;28;20209;-79
2021/11/22 06:57:42;;;;;;;31.67;16.60;;;5.70;99.90;;;;;;4985207;28;20261;-79
2021/11/22 07:00:11;;;;;;;37.05;17.40;;;5.70;99.90;;;;;;4983459;28;20312;-80
2021/11/22 07:02:39;;;;;;;28.50;16.63;;;5.80;99.90;;;;;;4991518;28;20236;-78
2021/11/22 07:05:07;;;;;;;34.80;16.63;;;5.80;99.90;;;;;;4972382;29;20201;-78
2021/11/22 07:07:33;;;;;;;39.90;17.38;;;5.90;99.90;;;;;;4974808;28;20247;-78
2021/11/22 07:10:02;;;;;;;38.63;17.40;;;5.80;99.90;;;;;;4988788;28;20307;-78
2021/11/22 07:12:29;;;;;;;35.42;18.60;;;5.80;99.90;;;;;;4989328;28;20205;-79
2021/11/22 07:14:55;;;;;;;41.17;18.65;;;5.90;99.90;;;;;;4972195;29;20277;-79
2021/11/22 07:17:23;;;;;;;35.25;18.67;;;5.90;99.90;;;;;;4968983;28;20229;-77
2021/11/22 07:19:50;;;;;;;31.20;17.85;;;5.90;99.90;;;;;;4996845;28;20243;-79
2021/11/22 07:22:17;;;;;;;36.30;17.83;;;5.90;99.90;;;;;;4991556;28;20209;-78
2021/11/22 07:24:45;;;;;;;41.58;20.92;;;6.00;99.90;;;;;;4982918;28;20267;-79
2021/11/22 07:27:14;;;;;;;42.88;19.65;;;6.00;99.90;;;;;;4980779;28;20312;-80
2021/11/22 07:29:42;;;;;;;33.35;17.92;;;6.00;99.90;;;;;;4985939;28;20217;-78
2021/11/22 07:32:09;;;;;;;37.67;20.00;;;6.00;99.90;;;;;;4991612;28;20237;-79
2021/11/22 07:34:36;;;;;;;41.72;19.85;;;6.00;99.90;;;;;;4980983;28;20224;-80
2021/11/22 07:37:04;;;;;;;39.15;19.48;;;6.00;99.90;;;;;;4980246;28;20323;-78
2021/11/22 07:39:31;;;;;;;41.83;18.85;;;6.00;99.90;;;;;;4980384;28;20211;-79
2021/11/22 07:41:57;;;;;;;38.75;19.33;;;6.00;99.90;;;;;;4980225;28;20660;-79
2021/11/22 07:44:26;;;;;;;36.28;19.02;;;6.10;99.90;;;;;;4982496;28;20209;-79
2021/11/22 07:46:53;;;;;;;38.42;19.50;;;6.10;99.90;;;;;;4987450;28;20232;-80
2021/11/22 07:49:20;;;;;;;36.72;20.85;;;6.10;99.90;;;;;;4999448;28;20190;-75
2021/11/22 07:51:47;;;;;;;43.58;20.30;;;6.10;99.90;;;;;;5000380;28;20219;-76
2021/11/22 07:54:14;;;;;;;43.13;19.92;;;6.10;99.90;;;;;;4998062;28;20221;-79
2021/11/22 07:56:41;;;;;;;37.72;18.55;;;6.10;99.90;;;;;;4983381;28;20261;-79
2021/11/22 07:59:10;;;;;;;40.15;18.90;;;6.10;99.90;;;;;;4981631;28;20269;-80
2021/11/22 08:01:38;;;;;;;40.40;17.90;;;6.10;99.90;;;;;;4982198;28;20217;-78
2021/11/22 08:04:12;;;;;;;39.80;19.88;;;6.20;99.90;;;;;;4981014;28;20237;-77
2021/11/22 08:06:41;;;;;;;40.95;19.50;;;6.20;99.90;;;;;;4982092;28;20240;-78
2021/11/22 08:09:13;;;;;;;42.40;17.52;;;6.20;99.90;;;;;;4982443;28;20212;-79
2021/11/22 08:11:49;;;;;;;32.60;17.23;;;6.20;99.90;;;;;;4993497;28;20201;-79
2021/11/22 08:14:16;;;;;;;32.72;16.52;;;6.20;99.90;;;;;;4985519;28;20196;-78
2021/11/22 08:16:44;;;;;;;32.28;18.17;;;6.20;99.90;;;;;;4987525;28;20236;-78
2021/11/22 08:19:11;;;;;;;36.92;17.42;;;6.20;99.90;;;;;;4988431;28;20205;-78
2021/11/22 08:21:38;;;;;;;34.55;17.25;;;6.20;99.90;;;;;;4984382;28;20206;-77
2021/11/22 08:24:05;;;;;;;31.60;17.77;;;6.20;99.90;;;;;;4979035;28;20234;-76
2021/11/22 08:26:32;;;;;;;35.67;16.95;;;6.20;99.90;;;;;;4971125;28;20239;-78
2021/11/22 08:28:59;;;;;;;33.40;16.45;;;6.20;99.90;;;;;;4973158;28;20652;-79
2021/11/22 08:31:25;;;;;;;26.35;15.02;;;6.20;99.90;;;;;;4980030;28;20209;-78
2021/11/22 08:33:53;;;;;;;31.08;15.75;;;6.30;99.90;;;;;;4977264;28;20206;-78
2021/11/22 08:36:21;;;;;;;24.77;15.30;;;6.30;99.90;;;;;;4960512;29;20240;-78
2021/11/22 08:38:48;;;;;;;30.83;14.38;;;6.40;99.90;;;;;;4962389;28;20310;-75
2021/11/22 08:41:15;;;;;;;25.65;13.68;;;6.40;99.90;;;;;;4979904;28;20205;-77
2021/11/22 08:43:42;;;;;;;27.02;14.05;;;6.40;99.90;;;;;;4988461;28;20239;-77
2021/11/22 08:46:11;;;;;;;21.70;13.48;;;6.30;99.90;;;;;;4989208;28;20784;-77
2021/11/22 08:48:38;;;;;;;24.85;13.43;;;6.40;99.90;;;;;;4972949;29;20292;-79
2021/11/22 08:51:08;;;;;;;24.63;14.15;;;6.40;99.90;;;;;;4989484;28;20201;-78
2021/11/22 08:53:35;;;;;;;28.70;14.73;;;6.40;99.90;;;;;;4992517;28;20300;-78
2021/11/22 08:56:02;;;;;;;24.90;14.25;;;6.40;99.90;;;;;;4993016;28;20311;-79
2021/11/22 08:58:29;;;;;;;20.83;12.88;;;6.30;99.90;;;;;;4993234;28;20205;-78
2021/11/22 09:00:56;;;;;;;21.40;13.43;;;6.30;99.90;;;;;;4991676;28;20281;-79
2021/11/22 09:03:23;;;;;;;21.42;13.00;;;6.40;99.90;;;;;;4991015;28;20233;-78
2021/11/22 09:05:50;;;;;;;21.70;13.30;;;6.30;99.90;;;;;;4991806;28;20247;-77
2021/11/22 09:08:18;;;;;;;25.52;12.82;;;6.40;99.90;;;;;;4979246;28;20220;-78
2021/11/22 09:10:45;;;;;;;22.83;12.65;;;6.40;99.90;;;;;;4982635;28;20205;-79
2021/11/22 09:13:14;;;;;;;20.92;13.40;;;6.50;99.90;;;;;;4984117;28;20244;-80
2021/11/22 09:15:42;;;;;;;20.35;11.45;;;6.50;99.90;;;;;;4978730;28;20221;-79
2021/11/22 09:18:09;;;;;;;16.52;12.20;;;6.50;99.90;;;;;;4979975;28;20725;-77
2021/11/22 09:20:36;;;;;;;23.33;12.10;;;6.50;99.90;;;;;;4988211;28;20219;-78
2021/11/22 09:23:04;;;;;;;21.27;11.85;;;6.50;99.90;;;;;;4988055;28;20233;-78
2021/11/22 09:25:34;;;;;;;17.08;11.20;;;6.60;99.90;;;;;;4994169;28;20217;-75
2021/11/22 09:28:02;;;;;;;20.98;11.95;;;6.60;99.90;;;;;;4977553;29;20246;-77
2021/11/22 09:30:29;;;;;;;23.00;12.55;;;6.60;99.90;;;;;;4976371;29;20242;-76
2021/11/22 09:32:56;;;;;;;19.75;11.10;;;6.60;99.90;;;;;;4988544;28;20216;-78
2021/11/22 09:35:26;;;;;;;27.75;13.35;;;6.70;99.90;;;;;;4980267;28;20220;-78
2021/11/22 09:37:53;;;;;;;20.85;11.20;;;6.70;99.90;;;;;;4982885;28;20209;-77
2021/11/22 09:40:20;;;;;;;21.67;12.23;;;6.80;99.90;;;;;;4997939;28;20194;-75
2021/11/22 09:42:51;;;;;;;19.60;11.00;;;6.70;99.90;;;;;;4997597;28;20221;-76
2021/11/22 09:45:19;;;;;;;21.05;11.93;;;6.80;99.90;;;;;;4997274;28;20185;-76
2021/11/22 09:47:46;;;;;;;16.80;11.40;;;6.80;99.90;;;;;;4992520;28;20236;-77
2021/11/22 09:50:13;;;;;;;21.10;10.75;;;6.80;99.90;;;;;;4987019;28;20224;-79
2021/11/22 09:52:41;;;;;;;16.88;10.90;;;6.80;99.90;;;;;;4982674;28;20341;-78
2021/11/22 09:55:08;;;;;;;15.40;10.57;;;6.80;99.90;;;;;;4978031;28;20208;-78
2021/11/22 09:57:35;;;;;;;17.50;10.43;;;6.90;99.90;;;;;;4977827;28;20216;-76
2021/11/22 10:00:04;;;;;;;19.08;9.90;;;7.00;99.90;;;;;;4977429;28;20241;-78
2021/11/22 10:02:52;;;;;;;17.33;11.18;;;7.00;99.90;;;;;;4989700;28;20224;-77
2021/11/22 10:05:26;;;;;;;17.70;10.13;;;7.00;99.90;;;;;;4982348;28;20223;-77
2021/11/22 10:08:06;;;;;;;20.63;10.90;;;7.00;99.90;;;;;;4990447;28;20224;-78
2021/11/22 10:10:35;;;;;;;16.55;9.98;;;7.10;99.90;;;;;;4992019;28;20276;-78
2021/11/22 10:13:18;;;;;;;18.00;9.50;;;7.10;99.90;;;;;;4984551;28;20201;-78
2021/11/22 10:15:46;;;;;;;15.10;9.48;;;7.00;99.90;;;;;;4981253;28;20272;-77
2021/11/22 10:18:17;;;;;;;13.23;8.68;;;7.00;99.90;;;;;;4990597;28;20304;-78
2021/11/22 10:20:44;;;;;;;17.15;9.75;;;7.10;99.90;;;;;;4986414;28;20284;-79
2021/11/22 10:23:12;;;;;;;13.07;9.45;;;7.00;99.90;;;;;;4977558;28;20594;-78
2021/11/22 10:25:42;;;;;;;17.90;9.80;;;7.00;99.90;;;;;;4978178;28;20327;-78
2021/11/22 10:28:17;;;;;;;14.40;9.82;;;7.00;99.90;;;;;;4978842;28;20220;-78
2021/11/22 10:30:47;;;;;;;18.33;9.27;;;7.00;99.90;;;;;;4977791;28;20660;-78
2021/11/22 10:33:17;;;;;;;17.90;9.98;;;7.00;99.90;;;;;;4979556;28;20205;-79
2021/11/22 10:35:45;;;;;;;15.30;9.80;;;7.00;99.90;;;;;;4980221;28;20235;-77
2021/11/22 10:38:15;;;;;;;12.07;8.02;;;7.10;99.90;;;;;;4982184;28;20226;-79
2021/11/22 10:40:44;;;;;;;14.68;9.07;;;7.10;99.90;;;;;;4980652;28;20217;-78
2021/11/22 10:43:12;;;;;;;14.35;9.18;;;7.10;99.90;;;;;;4981954;28;20232;-80
2021/11/22 10:45:41;;;;;;;14.93;9.27;;;7.20;99.90;;;;;;4982945;28;20709;-80
2021/11/22 10:48:18;;;;;;;13.05;8.50;;;7.20;99.90;;;;;;4982477;28;20569;-80
2021/11/22 10:50:51;;;;;;;11.98;9.15;;;7.10;99.90;;;;;;4982793;28;20236;-80
2021/11/22 10:53:33;;;;;;;13.05;9.10;;;7.10;99.90;;;;;;4973549;28;20205;-78
2021/11/22 10:56:01;;;;;;;16.30;8.73;;;7.00;99.90;;;;;;4974165;28;20323;-81
2021/11/22 10:58:37;;;;;;;14.05;9.20;;;7.00;99.90;;;;;;4965838;28;20288;-79
2021/11/22 11:01:34;;;;;;;12.38;9.05;;;7.00;99.90;;;;;;4974745;28;20292;-77
2021/11/22 11:04:09;;;;;;;17.30;9.80;;;7.00;99.90;;;;;;4976650;28;20214;-79
2021/11/22 11:06:55;;;;;;;17.95;9.50;;;6.90;99.90;;;;;;4975623;28;20225;-81
2021/11/22 11:09:28;;;;;;;14.05;9.45;;;6.90;99.90;;;;;;4977351;28;20269;-78
2021/11/22 11:12:02;;;;;;;11.38;8.93;;;6.90;99.90;;;;;;4980609;28;20217;-79
2021/11/22 11:14:30;;;;;;;20.70;8.68;;;7.00;99.90;;;;;;4977884;29;20202;-80
2021/11/22 11:17:15;;;;;;;15.93;8.32;;;6.90;99.90;;;;;;4989959;28;20247;-79
2021/11/22 11:19:44;;;;;;;14.13;8.05;;;7.00;99.90;;;;;;4994100;28;20690;-79
2021/11/22 11:22:11;;;;;;;16.00;8.95;;;7.10;99.90;;;;;;4998545;28;20193;-77
2021/11/22 11:24:38;;;;;;;12.15;7.72;;;7.30;99.90;;;;;;4996633;28;20248;-80
2021/11/22 11:27:06;;;;;;;12.93;7.30;;;7.30;99.90;;;;;;4997411;28;20228;-78
2021/11/22 11:29:33;;;;;;;9.93;7.05;;;7.60;99.90;;;;;;4997473;28;20229;-79
2021/11/22 11:32:00;;;;;;;9.23;7.00;;;7.60;99.90;;;;;;4995491;28;20257;-79
2021/11/22 11:34:29;;;;;;;10.00;7.30;;;7.70;99.90;;;;;;4993739;28;20209;-79
2021/11/22 11:37:20;;;;;;;12.45;6.40;;;7.80;99.20;;;;;;4996679;28;20255;-77
2021/11/22 11:40:19;;;;;;;7.95;5.85;;;7.80;96.80;;;;;;4994474;28;20232;-77
2021/11/22 11:43:38;;;;;;;6.50;5.72;;;8.00;94.50;;;;;;4986393;28;20220;-79
2021/11/22 11:46:11;;;;;;;4.88;4.38;;;8.10;92.70;;;;;;4991631;28;20221;-81
2021/11/22 11:48:45;;;;;;;7.18;4.97;;;8.30;88.90;;;;;;4971832;28;20213;-79
2021/11/22 11:51:15;;;;;;;7.30;4.75;;;8.20;86.80;;;;;;5023553;23;20563;-77
2021/11/22 11:54:12;;;;;;;9.48;5.13;;;8.10;86.50;;;;;;5034776;28;20681;-78
2021/11/22 11:56:47;;;;;;;7.50;4.15;;;8.00;86.30;;;;;;5031808;28;20207;-78
2021/11/22 11:59:22;;;;;;;6.32;3.78;;;8.00;87.40;;;;;;5042493;28;20230;-78
2021/11/22 12:02:02;;;;;;;4.30;3.72;;;8.00;87.20;;;;;;5030963;28;20393;-80
2021/11/22 12:04:31;;;;;;;4.97;3.85;;;8.10;85.40;;;;;;5033615;28;20230;-76
2021/11/22 12:06:59;;;;;;;6.68;3.80;;;8.10;84.00;;;;;;5014381;28;20218;-79
2021/11/22 12:09:31;;;;;;;5.20;2.67;;;8.10;81.80;;;;;;5013180;28;20247;-76
2021/11/22 12:12:18;;;;;;;3.25;2.40;;;8.10;79.90;;;;;;5022605;28;20224;-79
2021/11/22 12:14:55;;;;;;;3.35;2.80;;;8.00;75.50;;;;;;5025839;28;20210;-77
2021/11/22 12:18:05;;;;;;;5.57;3.03;;;7.90;74.80;;;;;;5045681;28;20569;-77
2021/11/22 12:21:04;;;;;;;2.63;2.05;;;7.90;73.80;;;;;;5022015;28;20239;-76
2021/11/22 12:23:41;;;;;;;3.30;2.35;;;7.80;71.00;;;;;;5013779;28;20228;-77
2021/11/22 12:26:09;;;;;;;2.80;2.05;;;7.80;70.50;;;;;;5032452;28;20207;-77
2021/11/22 12:28:49;;;;;;;3.95;2.67;;;7.70;70.60;;;;;;5025701;28;20214;-78
2021/11/22 12:31:45;;;;;;;4.28;2.67;;;7.70;70.10;;;;;;5024711;28;20274;-78
2021/11/22 12:34:13;;;;;;;2.42;2.22;;;7.70;69.50;;;;;;5013769;28;20195;-76
2021/11/22 12:36:49;;;;;;;3.15;2.15;;;7.80;69.50;;;;;;5026295;28;20208;-77
2021/11/22 12:39:24;;;;;;;3.33;2.17;;;7.90;67.80;;;;;;5016522;28;20271;-77
2021/11/22 12:42:17;;;;;;;4.38;2.03;;;7.90;66.80;;;;;;5018623;28;20294;-78
2021/11/22 12:45:05;;;;;;;1.90;1.80;;;8.00;66.80;;;;;;5001377;28;20314;-78
2021/11/22 12:47:32;;;;;;;1.90;1.58;;;8.10;66.00;;;;;;5016988;28;20211;-78
2021/11/22 12:50:14;;;;;;;2.35;2.08;;;8.30;65.60;;;;;;5017009;28;20229;-79
2021/11/22 12:52:41;;;;;;;3.28;2.20;;;8.40;66.20;;;;;;5016719;28;20208;-77
2021/11/22 12:55:17;;;;;;;1.60;1.50;;;8.40;65.70;;;;;;5016297;28;20203;-77
2021/11/22 12:57:46;;;;;;;1.88;1.70;;;8.40;64.80;;;;;;5016675;28;20207;-76